Time;durP1;ratioP1;P1;durP2;ratioP2;P2;SDS_P1;SDS_P2;PMS_P1;PMS_P2;Temp;Humidity;BMP_temperature;BMP_pressure;BME280_temperature;BME280_humidity;BME280_pressure;Samples;Min_cycle;Max_cycle;Signal;HPM_P1;HPM_P2
2022/11/24 00:00:40;;;;;;;105.60;53.90;;;2.70;1.00;;;;;;5100903;28;20228;-79
2022/11/24 00:03:12;;;;;;;122.00;58.22;;;2.70;1.00;;;;;;5099345;28;20325;-81
2022/11/24 00:05:40;;;;;;;119.53;57.72;;;2.70;1.00;;;;;;5100077;28;20222;-81
2022/11/24 00:08:18;;;;;;;99.68;54.30;;;2.70;1.00;;;;;;5097662;28;20236;-80
2022/11/24 00:10:48;;;;;;;105.00;55.25;;;2.90;1.00;;;;;;5097999;28;20217;-81
2022/11/24 00:13:15;;;;;;;97.03;52.50;;;2.90;1.00;;;;;;5090000;28;20237;-80
2022/11/24 00:15:42;;;;;;;125.32;57.97;;;2.90;1.00;;;;;;5089456;28;20238;-81
2022/11/24 00:18:11;;;;;;;120.68;55.25;;;2.90;1.00;;;;;;5092552;28;20242;-80
2022/11/24 00:20:39;;;;;;;111.25;53.83;;;2.90;1.00;;;;;;5090697;28;20330;-82
2022/11/24 00:23:09;;;;;;;116.90;54.58;;;2.90;1.00;;;;;;5105705;28;20234;-82
2022/11/24 00:25:42;;;;;;;106.32;56.38;;;2.90;1.00;;;;;;5083078;28;20241;-79
2022/11/24 00:28:10;;;;;;;102.63;55.47;;;2.80;1.00;;;;;;5093867;28;20241;-80
2022/11/24 00:30:40;;;;;;;101.28;57.63;;;2.90;1.00;;;;;;5103602;28;20225;-80
2022/11/24 00:33:15;;;;;;;105.88;56.95;;;2.90;1.00;;;;;;5101347;28;20281;-81
2022/11/24 00:35:43;;;;;;;131.27;59.78;;;2.90;1.00;;;;;;5066462;28;20263;-80
2022/11/24 00:38:10;;;;;;;86.10;54.28;;;2.90;1.00;;;;;;5099593;28;20244;-78
2022/11/24 00:40:42;;;;;;;89.53;53.25;;;2.90;1.00;;;;;;5103250;27;20221;-81
2022/11/24 00:43:19;;;;;;;95.22;51.35;;;3.10;1.00;;;;;;5104494;28;20234;-81
2022/11/24 00:45:52;;;;;;;108.10;54.28;;;3.20;1.00;;;;;;5084701;28;20272;-81
2022/11/24 00:48:34;;;;;;;116.68;59.25;;;3.10;1.00;;;;;;5088124;28;20929;-81
2022/11/24 00:51:10;;;;;;;98.28;55.70;;;3.00;1.00;;;;;;5098682;28;20234;-80
2022/11/24 00:53:37;;;;;;;95.43;56.42;;;3.00;1.00;;;;;;5103143;28;20337;-79
2022/11/24 00:56:07;;;;;;;96.55;52.90;;;3.00;1.00;;;;;;5099991;28;20298;-81
2022/11/24 01:01:41;;;;;;;97.15;54.17;;;3.00;1.00;;;;;;4958820;28;20240;-81
2022/11/24 01:04:11;;;;;;;101.13;54.83;;;2.90;1.00;;;;;;5031063;28;20280;-78
2022/11/24 01:06:38;;;;;;;104.32;55.45;;;2.90;1.00;;;;;;5095573;28;20295;-78
2022/11/24 01:09:10;;;;;;;100.63;56.75;;;2.90;1.00;;;;;;5091821;28;20241;-77
2022/11/24 01:14:19;;;;;;;113.00;57.28;;;2.90;1.00;;;;;;5098116;28;20233;-78
2022/11/24 01:19:48;;;;;;;92.00;55.88;;;2.80;1.00;;;;;;5099918;28;20252;-80
2022/11/24 01:22:20;;;;;;;88.85;55.00;;;2.80;1.00;;;;;;5086240;28;20670;-79
2022/11/24 01:24:50;;;;;;;89.95;54.05;;;2.90;1.00;;;;;;5092718;28;21081;-79
2022/11/24 01:27:23;;;;;;;103.80;54.40;;;3.00;1.00;;;;;;5087542;28;20239;-80
2022/11/24 01:29:53;;;;;;;95.30;56.53;;;2.90;1.00;;;;;;5087908;28;20235;-80
2022/11/24 01:32:20;;;;;;;77.88;52.13;;;3.00;1.00;;;;;;5091951;28;20238;-80
2022/11/24 01:34:52;;;;;;;96.97;56.22;;;3.10;1.00;;;;;;5095407;28;20246;-82
2022/11/24 01:37:22;;;;;;;97.30;54.75;;;3.00;1.00;;;;;;5103595;28;20302;-80
2022/11/24 01:39:51;;;;;;;80.45;49.00;;;3.00;1.00;;;;;;5105634;28;20234;-78
2022/11/24 01:42:20;;;;;;;90.63;54.17;;;3.00;1.00;;;;;;5098841;28;20212;-79
2022/11/24 01:45:32;;;;;;;96.20;53.17;;;2.90;1.00;;;;;;5100784;28;20237;-80
2022/11/24 01:48:06;;;;;;;103.68;51.00;;;2.80;1.00;;;;;;5095670;28;20234;-78
2022/11/24 01:53:42;;;;;;;92.57;52.60;;;2.70;1.00;;;;;;5089017;28;20263;-80
2022/11/24 01:56:13;;;;;;;93.25;52.42;;;2.70;1.00;;;;;;5095545;28;20230;-79
2022/11/24 01:58:43;;;;;;;102.43;54.90;;;2.90;1.00;;;;;;5084841;28;20244;-80
2022/11/24 02:01:11;;;;;;;101.60;53.22;;;2.80;1.00;;;;;;5100654;28;20295;-82
2022/11/24 02:03:51;;;;;;;107.85;53.92;;;2.70;1.00;;;;;;5101794;28;20218;-78
2022/11/24 02:06:29;;;;;;;82.57;51.03;;;2.70;1.00;;;;;;5101050;28;20238;-81
2022/11/24 02:09:06;;;;;;;112.15;55.63;;;2.80;1.00;;;;;;5097267;28;20242;-80
2022/11/24 02:11:42;;;;;;;76.57;48.63;;;2.80;1.00;;;;;;5100514;28;20234;-77
2022/11/24 02:14:16;;;;;;;91.57;50.45;;;3.00;1.00;;;;;;5073860;28;20291;-78
2022/11/24 02:17:03;;;;;;;73.75;47.88;;;3.00;1.00;;;;;;5100613;28;20293;-81
2022/11/24 02:19:48;;;;;;;92.03;51.75;;;3.00;1.00;;;;;;5103693;28;20233;-81
2022/11/24 02:22:49;;;;;;;103.45;53.00;;;3.10;1.00;;;;;;5102588;28;20291;-79
2022/11/24 02:25:40;;;;;;;82.82;47.38;;;2.90;1.00;;;;;;5092249;28;20222;-79
2022/11/24 02:28:20;;;;;;;86.88;48.38;;;2.90;1.00;;;;;;5100981;28;20244;-80
2022/11/24 02:30:51;;;;;;;73.70;47.38;;;2.90;1.00;;;;;;5096516;28;20245;-80
2022/11/24 02:33:24;;;;;;;93.70;48.20;;;2.80;1.00;;;;;;5075043;28;20261;-80
2022/11/24 02:35:51;;;;;;;100.88;48.78;;;2.90;1.00;;;;;;5085004;28;21056;-82
2022/11/24 02:38:33;;;;;;;89.65;50.38;;;2.80;1.00;;;;;;5087856;28;20219;-81
2022/11/24 02:41:11;;;;;;;103.38;47.70;;;2.70;1.00;;;;;;5103263;28;20234;-79
2022/11/24 02:43:47;;;;;;;76.15;48.20;;;2.60;1.00;;;;;;5088315;28;20225;-81
2022/11/24 02:46:20;;;;;;;86.50;48.35;;;2.60;1.00;;;;;;5100660;28;20331;-80
2022/11/24 02:48:52;;;;;;;103.03;49.40;;;2.70;1.00;;;;;;5098215;28;20258;-80
2022/11/24 02:51:21;;;;;;;95.60;50.20;;;2.70;1.00;;;;;;5093487;28;20229;-81
2022/11/24 02:53:50;;;;;;;88.85;50.40;;;2.80;1.00;;;;;;5105799;28;20238;-80
2022/11/24 02:56:22;;;;;;;83.32;47.25;;;2.70;1.00;;;;;;5104150;28;20274;-82
2022/11/24 02:58:51;;;;;;;85.82;45.42;;;2.60;1.00;;;;;;5102082;28;20253;-82
2022/11/24 03:01:24;;;;;;;78.45;45.63;;;2.60;1.00;;;;;;5091264;28;20233;-81
2022/11/24 03:03:51;;;;;;;70.90;46.15;;;2.60;1.00;;;;;;5103025;28;20230;-79
2022/11/24 03:06:23;;;;;;;100.60;47.85;;;2.70;1.00;;;;;;5103936;28;20210;-80
2022/11/24 03:08:52;;;;;;;78.20;43.83;;;2.70;1.00;;;;;;5099632;28;20244;-80
2022/11/24 03:11:21;;;;;;;84.20;48.30;;;2.70;1.00;;;;;;5104104;28;20237;-82
2022/11/24 03:14:01;;;;;;;92.43;47.20;;;2.60;1.00;;;;;;5102530;28;20233;-80
2022/11/24 03:16:35;;;;;;;95.05;46.78;;;2.70;1.00;;;;;;5093611;28;20213;-79
2022/11/24 03:19:08;;;;;;;71.07;45.28;;;2.70;1.00;;;;;;5096747;28;20360;-83
2022/11/24 03:21:41;;;;;;;85.45;46.42;;;2.60;1.00;;;;;;5078962;28;20828;-80
2022/11/24 03:24:13;;;;;;;82.57;45.97;;;2.50;1.00;;;;;;5099373;28;20261;-80
2022/11/24 03:26:41;;;;;;;73.45;42.47;;;2.60;1.00;;;;;;5103210;28;20230;-80
2022/11/24 03:36:13;;;;;;;76.47;42.72;;;2.70;1.00;;;;;;4907274;28;20239;-78
2022/11/24 03:38:41;;;;;;;73.28;43.35;;;2.60;1.00;;;;;;4932803;28;20267;-78
2022/11/24 03:41:10;;;;;;;72.50;44.70;;;2.50;1.00;;;;;;4999070;28;21048;-78
2022/11/24 03:43:39;;;;;;;66.05;42.83;;;2.40;1.00;;;;;;5057262;28;20776;-77
2022/11/24 03:46:08;;;;;;;69.72;42.38;;;2.50;1.00;;;;;;5095621;28;20681;-79
2022/11/24 03:48:35;;;;;;;102.80;44.53;;;2.50;1.00;;;;;;5094119;28;20248;-80
2022/11/24 03:51:10;;;;;;;83.38;43.25;;;2.50;1.00;;;;;;5093169;28;20243;-80
2022/11/24 03:53:37;;;;;;;81.40;46.00;;;2.40;1.00;;;;;;5090854;28;20379;-78
2022/11/24 03:56:04;;;;;;;80.93;45.50;;;2.30;1.00;;;;;;5091620;28;20242;-79
2022/11/24 03:58:31;;;;;;;72.30;43.55;;;2.30;1.00;;;;;;5088504;28;20237;-79
2022/11/24 04:00:59;;;;;;;69.15;41.80;;;2.40;1.00;;;;;;5091372;28;20241;-78
2022/11/24 04:03:27;;;;;;;86.03;44.90;;;2.40;1.00;;;;;;5102482;28;20234;-78
2022/11/24 04:05:59;;;;;;;75.97;44.33;;;2.50;1.00;;;;;;5097546;28;20218;-80
2022/11/24 04:08:27;;;;;;;85.45;45.78;;;2.40;1.00;;;;;;5098166;28;20244;-78
2022/11/24 04:10:56;;;;;;;77.70;41.53;;;2.30;1.00;;;;;;5096807;28;20238;-80
2022/11/24 04:13:24;;;;;;;84.43;46.05;;;2.30;1.00;;;;;;5103510;28;20233;-81
2022/11/24 04:15:51;;;;;;;97.82;47.05;;;2.20;1.00;;;;;;5098978;28;20729;-78
2022/11/24 04:18:27;;;;;;;82.43;44.45;;;2.20;1.00;;;;;;5098517;28;20226;-80
2022/11/24 04:20:54;;;;;;;82.50;42.58;;;2.20;1.00;;;;;;5098858;28;20234;-81
2022/11/24 04:23:22;;;;;;;79.60;42.53;;;2.20;1.00;;;;;;5083424;28;20237;-81
2022/11/24 04:25:53;;;;;;;84.07;44.13;;;2.20;1.00;;;;;;5100232;28;20243;-82
2022/11/24 04:28:22;;;;;;;86.63;42.05;;;2.20;1.00;;;;;;5099546;28;20210;-81
2022/11/24 04:30:49;;;;;;;86.63;46.78;;;2.20;1.00;;;;;;5086655;28;20284;-77
2022/11/24 04:33:20;;;;;;;72.03;42.47;;;2.20;1.00;;;;;;5096223;28;20237;-79
2022/11/24 04:35:47;;;;;;;89.53;44.78;;;2.20;1.00;;;;;;5096764;28;20233;-81
2022/11/24 04:38:20;;;;;;;72.93;40.15;;;2.20;1.00;;;;;;5097970;28;20733;-81
2022/11/24 04:40:47;;;;;;;78.45;40.13;;;2.30;1.00;;;;;;5098145;28;20235;-80
2022/11/24 04:43:21;;;;;;;64.03;41.28;;;2.20;1.00;;;;;;5099531;28;20988;-80
2022/11/24 04:45:49;;;;;;;64.57;38.63;;;2.20;1.00;;;;;;5107619;28;20233;-78
2022/11/24 04:48:22;;;;;;;69.03;38.63;;;2.20;1.00;;;;;;5104258;28;20239;-79
2022/11/24 04:50:49;;;;;;;81.20;45.95;;;2.30;1.00;;;;;;5104534;28;20327;-81
2022/11/24 04:53:17;;;;;;;74.07;44.55;;;2.20;1.00;;;;;;5101300;28;20296;-81
2022/11/24 04:55:50;;;;;;;59.85;38.30;;;2.20;1.00;;;;;;5101742;28;20310;-79
2022/11/24 04:58:23;;;;;;;65.85;38.53;;;2.30;1.00;;;;;;5085818;28;20222;-81
2022/11/24 05:00:50;;;;;;;73.07;39.65;;;2.20;1.00;;;;;;5102169;28;20319;-81
2022/11/24 05:03:23;;;;;;;98.93;40.70;;;2.30;1.00;;;;;;5098435;28;20258;-82
2022/11/24 05:05:50;;;;;;;69.10;38.28;;;2.30;1.00;;;;;;5101780;28;20281;-80
2022/11/24 05:08:22;;;;;;;128.88;44.15;;;2.30;1.00;;;;;;5101160;28;20961;-79
2022/11/24 05:10:50;;;;;;;70.72;39.30;;;2.40;1.00;;;;;;5107172;28;20242;-82
2022/11/24 05:13:23;;;;;;;91.45;40.45;;;2.20;1.00;;;;;;5097536;28;20237;-82
2022/11/24 05:15:51;;;;;;;68.55;38.08;;;2.30;1.00;;;;;;5103421;28;20226;-80
2022/11/24 05:18:22;;;;;;;82.70;39.17;;;2.30;1.00;;;;;;5100308;28;20209;-81
2022/11/24 05:20:49;;;;;;;90.88;38.05;;;2.40;1.00;;;;;;5097163;28;21091;-79
2022/11/24 05:23:30;;;;;;;66.05;36.40;;;2.40;1.00;;;;;;5097906;28;20609;-79
2022/11/24 05:26:02;;;;;;;76.88;37.03;;;2.50;1.00;;;;;;5094315;28;20344;-80
2022/11/24 05:28:33;;;;;;;120.38;46.55;;;2.40;1.00;;;;;;5095621;28;20238;-79
2022/11/24 05:31:03;;;;;;;69.18;36.97;;;2.30;1.00;;;;;;5096895;28;20524;-79
2022/11/24 05:33:32;;;;;;;74.57;38.10;;;2.40;1.00;;;;;;5100837;28;20283;-79
2022/11/24 05:36:06;;;;;;;70.78;37.40;;;2.40;1.00;;;;;;5098947;28;20240;-79
2022/11/24 05:38:35;;;;;;;76.00;40.03;;;2.50;1.00;;;;;;5079586;28;20317;-82
2022/11/24 05:41:04;;;;;;;91.90;38.00;;;2.50;1.00;;;;;;5093940;28;20232;-80
2022/11/24 05:43:32;;;;;;;74.90;39.75;;;2.50;1.00;;;;;;5095364;28;20245;-79
2022/11/24 05:46:03;;;;;;;81.65;41.67;;;2.50;1.00;;;;;;5099152;28;20298;-82
2022/11/24 05:48:30;;;;;;;67.70;37.83;;;2.50;1.00;;;;;;5094041;28;20237;-79
2022/11/24 05:51:02;;;;;;;75.25;41.95;;;2.60;1.00;;;;;;5098185;28;20260;-79
2022/11/24 05:53:29;;;;;;;68.47;37.03;;;2.40;1.00;;;;;;5099047;28;20241;-78
2022/11/24 05:55:56;;;;;;;63.70;37.72;;;2.30;1.00;;;;;;5094162;28;20238;-79
2022/11/24 05:58:23;;;;;;;68.28;33.85;;;2.30;1.00;;;;;;5096590;28;20908;-78
2022/11/24 06:00:52;;;;;;;62.08;33.38;;;2.40;1.00;;;;;;5079564;28;20242;-77
2022/11/24 06:03:22;;;;;;;76.40;36.45;;;2.40;1.00;;;;;;5070799;28;20245;-77
2022/11/24 06:05:56;;;;;;;71.05;36.70;;;2.30;1.00;;;;;;5080412;28;20233;-80
2022/11/24 06:08:27;;;;;;;79.55;35.35;;;2.40;1.00;;;;;;5101715;28;20234;-80
2022/11/24 06:10:54;;;;;;;92.47;36.65;;;2.40;1.00;;;;;;5099754;28;20611;-81
2022/11/24 06:13:23;;;;;;;73.35;35.03;;;2.30;1.00;;;;;;5096644;28;20249;-79
2022/11/24 06:15:52;;;;;;;76.30;36.80;;;2.40;1.00;;;;;;5095937;28;20238;-78
2022/11/24 06:18:20;;;;;;;66.45;35.60;;;2.20;1.00;;;;;;5088760;28;20258;-78
2022/11/24 06:20:48;;;;;;;66.22;34.40;;;2.20;1.00;;;;;;5096294;28;20431;-79
2022/11/24 06:23:20;;;;;;;61.60;32.47;;;2.20;1.00;;;;;;5092087;28;20247;-79
2022/11/24 06:25:48;;;;;;;68.97;35.05;;;2.30;1.00;;;;;;5094389;28;20237;-80
2022/11/24 06:28:20;;;;;;;62.50;31.88;;;2.30;1.00;;;;;;5097888;28;20248;-76
2022/11/24 06:30:51;;;;;;;65.75;36.00;;;2.30;1.00;;;;;;5099416;28;20301;-79
2022/11/24 06:33:24;;;;;;;64.78;34.08;;;2.30;1.00;;;;;;5097322;28;20219;-81
2022/11/24 06:35:55;;;;;;;51.92;30.77;;;2.10;1.00;;;;;;5102724;28;20279;-79
2022/11/24 06:38:22;;;;;;;48.10;30.67;;;2.10;1.00;;;;;;5097178;28;20213;-79
2022/11/24 06:40:49;;;;;;;53.35;30.20;;;2.20;1.00;;;;;;5099189;28;20237;-81
2022/11/24 06:43:16;;;;;;;61.05;32.55;;;2.20;1.00;;;;;;5096316;28;20231;-81
2022/11/24 06:45:44;;;;;;;73.20;32.85;;;2.20;1.00;;;;;;5099044;28;20637;-80
2022/11/24 06:48:11;;;;;;;51.45;31.58;;;2.30;1.00;;;;;;5083943;28;21032;-80
2022/11/24 06:50:42;;;;;;;55.83;31.58;;;2.30;1.00;;;;;;5095598;28;20725;-81
2022/11/24 06:53:14;;;;;;;74.78;33.83;;;2.30;1.00;;;;;;5090915;28;20292;-85
2022/11/24 06:55:45;;;;;;;57.13;32.75;;;2.30;1.00;;;;;;5079343;28;20332;-78
2022/11/24 06:58:14;;;;;;;54.63;31.63;;;2.40;1.00;;;;;;5093758;28;20232;-77
2022/11/24 07:00:43;;;;;;;51.22;29.70;;;2.50;1.00;;;;;;5099956;28;20230;-79
2022/11/24 07:03:15;;;;;;;64.88;32.70;;;2.50;1.00;;;;;;5095881;28;20977;-79
2022/11/24 07:05:44;;;;;;;57.40;29.48;;;2.50;1.00;;;;;;5083070;28;20433;-81
2022/11/24 07:08:11;;;;;;;50.20;31.40;;;2.50;1.00;;;;;;5099907;28;20269;-81
2022/11/24 07:10:44;;;;;;;58.92;31.15;;;2.50;1.00;;;;;;5101514;28;20232;-79
2022/11/24 07:13:13;;;;;;;55.85;30.67;;;2.50;1.00;;;;;;5101253;28;21487;-79
2022/11/24 07:15:43;;;;;;;55.45;31.17;;;2.50;1.00;;;;;;5100191;28;20241;-81
2022/11/24 07:18:12;;;;;;;53.67;34.53;;;2.50;1.00;;;;;;5101342;27;20237;-80
2022/11/24 07:20:49;;;;;;;51.17;32.90;;;2.50;1.00;;;;;;5098370;28;20218;-79
2022/11/24 07:23:16;;;;;;;51.22;29.88;;;2.60;1.00;;;;;;5098467;28;20245;-79
2022/11/24 07:25:52;;;;;;;55.47;31.25;;;2.60;1.00;;;;;;5089617;28;20283;-81
2022/11/24 07:28:28;;;;;;;53.65;34.03;;;2.70;1.00;;;;;;5094287;28;20234;-82
2022/11/24 07:30:55;;;;;;;58.05;31.63;;;2.60;1.00;;;;;;5096579;28;20323;-79
2022/11/24 07:33:24;;;;;;;49.30;31.85;;;2.50;1.00;;;;;;5098731;28;20217;-78
2022/11/24 07:35:53;;;;;;;51.70;31.67;;;2.50;1.00;;;;;;5100418;28;20241;-76
2022/11/24 07:38:23;;;;;;;57.35;32.92;;;2.50;1.00;;;;;;5099095;28;20209;-81
2022/11/24 07:40:50;;;;;;;56.90;44.60;;;2.60;1.00;;;;;;5099513;28;20286;-82
2022/11/24 07:43:22;;;;;;;50.33;30.23;;;2.60;1.00;;;;;;5095075;28;20233;-78
2022/11/24 07:45:52;;;;;;;43.00;27.83;;;2.60;1.00;;;;;;5094002;28;20712;-80
2022/11/24 07:48:23;;;;;;;50.42;30.15;;;2.60;1.00;;;;;;5093652;28;20232;-80
2022/11/24 07:50:51;;;;;;;49.92;30.50;;;2.70;1.00;;;;;;5100750;28;20295;-80
2022/11/24 07:53:23;;;;;;;53.80;30.33;;;2.70;1.00;;;;;;5100765;28;20245;-81
2022/11/24 07:55:53;;;;;;;41.05;27.90;;;2.70;1.00;;;;;;5100454;28;20244;-78
2022/11/24 07:58:24;;;;;;;44.17;28.30;;;2.80;1.00;;;;;;5100398;28;20228;-79
2022/11/24 08:00:51;;;;;;;50.20;29.77;;;2.80;1.00;;;;;;5103056;28;20238;-79
2022/11/24 08:03:26;;;;;;;49.95;30.27;;;2.80;1.00;;;;;;5103336;28;20244;-80
2022/11/24 08:06:04;;;;;;;40.45;27.17;;;2.90;1.00;;;;;;5098167;28;20236;-78
2022/11/24 08:08:34;;;;;;;48.22;27.70;;;2.80;1.00;;;;;;5100706;28;20292;-81
2022/11/24 08:11:07;;;;;;;44.20;26.80;;;2.90;1.00;;;;;;5097210;28;20218;-78
2022/11/24 08:13:35;;;;;;;46.63;30.65;;;2.90;1.00;;;;;;5090125;28;20270;-80
2022/11/24 08:16:06;;;;;;;46.35;27.98;;;3.00;1.00;;;;;;5106008;28;20256;-79
2022/11/24 08:18:34;;;;;;;40.50;26.95;;;3.00;1.00;;;;;;5103230;28;20243;-78
2022/11/24 08:21:04;;;;;;;38.05;23.88;;;3.00;1.00;;;;;;5105221;28;20240;-81
2022/11/24 08:23:33;;;;;;;37.92;26.58;;;3.00;1.00;;;;;;5102203;28;20262;-78
2022/11/24 08:26:05;;;;;;;37.22;24.17;;;3.00;1.00;;;;;;5104852;28;20235;-78
2022/11/24 08:28:33;;;;;;;40.35;27.67;;;3.00;1.00;;;;;;5100567;28;20256;-79
2022/11/24 08:31:08;;;;;;;37.13;25.77;;;3.00;1.00;;;;;;5100718;28;20246;-81
2022/11/24 08:33:35;;;;;;;41.33;26.13;;;3.10;1.00;;;;;;5103197;28;20260;-81
2022/11/24 08:36:04;;;;;;;40.03;27.65;;;3.20;1.00;;;;;;5096316;28;20240;-82
2022/11/24 08:38:35;;;;;;;45.22;30.98;;;3.30;1.00;;;;;;5095409;28;20238;-82
2022/11/24 08:41:04;;;;;;;39.05;26.13;;;3.20;1.00;;;;;;5103762;28;20342;-79
2022/11/24 08:43:32;;;;;;;42.90;27.15;;;3.30;1.00;;;;;;5095964;28;20705;-81
2022/11/24 08:46:02;;;;;;;43.13;26.73;;;3.40;1.00;;;;;;5102354;28;20241;-82
2022/11/24 08:48:30;;;;;;;42.83;26.75;;;3.40;1.00;;;;;;5096268;28;20597;-80
2022/11/24 08:51:07;;;;;;;50.95;31.35;;;3.40;1.00;;;;;;5097864;28;20277;-82
2022/11/24 08:53:36;;;;;;;42.03;28.90;;;3.30;1.00;;;;;;5098588;28;20233;-78
2022/11/24 08:56:08;;;;;;;44.67;29.73;;;3.40;1.00;;;;;;5101502;28;20267;-79
2022/11/24 08:58:35;;;;;;;39.67;27.02;;;3.50;1.00;;;;;;5102516;28;20245;-78
2022/11/24 09:01:06;;;;;;;47.35;30.65;;;3.50;1.00;;;;;;5099748;28;20242;-78
2022/11/24 09:03:34;;;;;;;44.85;28.55;;;3.50;1.00;;;;;;5099157;28;20242;-77
2022/11/24 09:06:04;;;;;;;53.17;34.70;;;3.50;1.00;;;;;;5100294;28;21183;-81
2022/11/24 09:08:32;;;;;;;45.22;28.90;;;3.50;1.00;;;;;;5102639;28;20258;-78
2022/11/24 09:11:09;;;;;;;44.83;29.02;;;3.60;1.00;;;;;;5106069;28;20241;-81
2022/11/24 09:13:39;;;;;;;43.40;27.45;;;3.60;1.00;;;;;;5103927;28;20694;-81
2022/11/24 09:16:11;;;;;;;41.38;28.10;;;3.60;1.00;;;;;;5102595;28;20242;-81
2022/11/24 09:18:39;;;;;;;43.70;29.55;;;3.70;1.00;;;;;;5101005;28;20328;-81
2022/11/24 09:21:08;;;;;;;43.10;28.42;;;3.70;1.00;;;;;;5106097;28;20235;-82
2022/11/24 09:23:36;;;;;;;46.42;28.92;;;3.60;1.00;;;;;;5101962;28;20234;-81
2022/11/24 09:26:07;;;;;;;41.97;28.13;;;3.60;1.00;;;;;;5103361;28;20307;-82
2022/11/24 09:28:34;;;;;;;39.65;27.50;;;3.70;1.00;;;;;;5097573;28;20726;-80
2022/11/24 09:31:06;;;;;;;42.75;27.52;;;3.90;1.00;;;;;;5111317;28;20226;-83
2022/11/24 09:33:34;;;;;;;42.42;29.60;;;3.80;1.00;;;;;;5105655;28;20273;-82
2022/11/24 09:36:05;;;;;;;41.38;28.38;;;3.80;1.00;;;;;;5105310;28;20325;-81
2022/11/24 09:38:32;;;;;;;38.33;26.05;;;3.80;1.00;;;;;;5103411;28;20976;-81
2022/11/24 09:41:27;;;;;;;36.75;25.55;;;3.90;1.00;;;;;;5094389;28;20411;-81
2022/11/24 09:44:02;;;;;;;37.90;26.38;;;4.00;1.00;;;;;;5100438;28;20271;-81
2022/11/24 09:46:36;;;;;;;39.67;27.25;;;4.10;1.00;;;;;;5099966;28;20239;-81
2022/11/24 09:49:06;;;;;;;39.35;26.88;;;4.20;1.00;;;;;;5105234;28;20285;-82
2022/11/24 09:51:41;;;;;;;40.38;28.10;;;4.30;1.00;;;;;;5099256;28;20238;-80
2022/11/24 09:54:16;;;;;;;36.40;26.40;;;4.40;1.00;;;;;;5099901;28;20234;-78
2022/11/24 09:56:46;;;;;;;41.72;30.30;;;4.60;1.00;;;;;;5097539;28;20226;-78
2022/11/24 09:59:16;;;;;;;42.67;29.48;;;4.60;1.00;;;;;;5094214;28;20237;-80
2022/11/24 10:01:44;;;;;;;38.28;25.88;;;4.60;1.00;;;;;;5092862;28;20336;-79
2022/11/24 10:04:18;;;;;;;48.08;32.30;;;4.70;1.00;;;;;;5090638;28;20264;-81
2022/11/24 10:06:50;;;;;;;46.83;30.25;;;4.80;1.00;;;;;;5100286;28;20302;-81
2022/11/24 10:09:44;;;;;;;41.40;29.25;;;5.00;1.00;;;;;;5102816;28;20244;-82
2022/11/24 10:12:33;;;;;;;42.10;29.77;;;5.10;1.00;;;;;;5100478;28;20271;-81
2022/11/24 10:15:20;;;;;;;41.92;29.13;;;5.10;1.00;;;;;;5101344;28;20250;-77
2022/11/24 10:18:14;;;;;;;39.97;29.55;;;5.30;1.00;;;;;;5094940;28;20336;-80
2022/11/24 10:20:58;;;;;;;39.83;30.00;;;5.60;1.00;;;;;;5102956;28;20340;-78
2022/11/24 10:23:43;;;;;;;42.70;30.52;;;5.70;1.00;;;;;;5073746;28;20233;-80
2022/11/24 10:26:19;;;;;;;42.42;28.80;;;5.90;1.00;;;;;;5097377;28;20253;-80
2022/11/24 10:28:54;;;;;;;37.45;28.00;;;5.70;1.00;;;;;;5087919;28;20266;-81
2022/11/24 10:31:34;;;;;;;39.72;30.10;;;5.80;1.00;;;;;;5079258;28;20241;-78
2022/11/24 10:34:13;;;;;;;40.47;28.27;;;6.00;1.00;;;;;;5095178;28;20242;-80
2022/11/24 10:36:47;;;;;;;40.55;28.83;;;6.30;1.00;;;;;;5093762;28;20330;-81
2022/11/24 10:39:20;;;;;;;40.33;29.50;;;6.50;1.00;;;;;;5085162;28;20248;-80
2022/11/24 10:41:57;;;;;;;38.42;29.25;;;6.80;1.00;;;;;;5092012;28;20328;-79
2022/11/24 10:44:32;;;;;;;38.92;28.35;;;6.60;1.00;;;;;;5103087;28;20318;-79
2022/11/24 10:46:59;;;;;;;40.47;27.88;;;7.00;1.00;;;;;;5098628;28;21082;-79
2022/11/24 10:49:33;;;;;;;40.53;27.90;;;7.20;1.00;;;;;;5097127;28;20308;-80
2022/11/24 10:52:07;;;;;;;36.72;26.83;;;7.30;1.00;;;;;;5062639;28;20219;-78
2022/11/24 10:54:35;;;;;;;37.78;26.90;;;7.30;1.00;;;;;;5056569;28;21279;-79
2022/11/24 10:57:03;;;;;;;34.15;26.45;;;7.30;1.00;;;;;;5062728;28;20252;-79
2022/11/24 10:59:36;;;;;;;34.45;25.83;;;7.40;1.00;;;;;;5063650;28;20238;-78
2022/11/24 11:02:26;;;;;;;37.08;27.52;;;7.30;1.00;;;;;;5061465;28;20759;-77
2022/11/24 11:04:54;;;;;;;39.70;25.92;;;7.30;1.00;;;;;;5059545;28;20243;-78
2022/11/24 11:07:24;;;;;;;33.00;24.75;;;7.20;1.00;;;;;;5060477;28;20231;-77
2022/11/24 11:10:19;;;;;;;38.53;29.00;;;7.20;1.00;;;;;;5056822;28;20215;-79
2022/11/24 11:12:47;;;;;;;34.30;26.70;;;7.40;1.00;;;;;;5052548;28;20283;-79
2022/11/24 11:15:45;;;;;;;37.63;25.88;;;7.60;1.00;;;;;;5058819;28;20238;-78
2022/11/24 11:18:17;;;;;;;34.70;24.23;;;7.80;1.00;;;;;;5059906;28;20247;-78
2022/11/24 11:20:54;;;;;;;33.70;26.30;;;7.90;1.00;;;;;;5056297;28;20267;-79
2022/11/24 11:23:35;;;;;;;34.33;25.25;;;8.20;1.00;;;;;;5063414;28;20228;-78
2022/11/24 11:26:33;;;;;;;36.78;26.55;;;8.30;1.00;;;;;;5053470;28;20242;-78
2022/11/24 11:29:02;;;;;;;32.05;26.15;;;8.00;1.00;;;;;;5052989;28;20240;-78
2022/11/24 11:31:33;;;;;;;37.95;26.65;;;8.00;1.00;;;;;;5055396;28;20327;-79
2022/11/24 11:34:13;;;;;;;33.30;25.10;;;8.00;1.00;;;;;;5059044;28;20572;-79
2022/11/24 11:36:48;;;;;;;35.50;26.60;;;8.50;1.00;;;;;;5066837;28;20239;-79
2022/11/24 11:39:28;;;;;;;34.83;26.25;;;9.10;1.00;;;;;;5058069;28;21027;-78
2022/11/24 11:42:14;;;;;;;35.50;26.60;;;9.10;1.00;;;;;;5060922;28;20727;-78
2022/11/24 11:44:52;;;;;;;36.58;25.65;;;8.90;1.00;;;;;;5053300;28;20217;-78
2022/11/24 11:47:33;;;;;;;34.97;26.88;;;8.70;1.00;;;;;;5055266;28;20240;-79
2022/11/24 11:50:12;;;;;;;32.97;26.55;;;8.70;1.00;;;;;;5062480;28;20449;-79
2022/11/24 11:53:09;;;;;;;35.60;27.75;;;8.50;1.00;;;;;;5077913;28;20744;-79
2022/11/24 11:55:53;;;;;;;35.65;25.25;;;8.20;1.00;;;;;;5078865;28;20323;-80
2022/11/24 11:59:07;;;;;;;34.85;28.42;;;8.10;1.00;;;;;;5080851;28;20239;-80
2022/11/24 12:01:56;;;;;;;35.55;27.42;;;8.10;1.00;;;;;;5014364;28;20249;-78
2022/11/24 12:04:44;;;;;;;34.83;26.15;;;7.70;1.00;;;;;;5075842;28;20234;-78
2022/11/24 12:07:45;;;;;;;36.47;27.23;;;7.40;1.00;;;;;;5083256;28;20224;-79
2022/11/24 12:10:25;;;;;;;37.72;29.50;;;7.60;1.00;;;;;;5058555;28;20240;-77
2022/11/24 12:13:20;;;;;;;37.28;28.30;;;7.80;1.00;;;;;;5073522;28;20273;-78
2022/11/24 12:15:56;;;;;;;31.90;26.00;;;8.80;1.00;;;;;;5080574;28;20807;-79
2022/11/24 12:18:38;;;;;;;31.97;26.50;;;10.10;1.00;;;;;;5083271;28;20520;-79
2022/11/24 12:21:17;;;;;;;35.63;27.77;;;11.40;1.00;;;;;;5068896;28;20470;-78
2022/11/24 12:23:58;;;;;;;31.17;25.10;;;12.30;1.00;;;;;;5075946;28;20436;-79
2022/11/24 12:26:35;;;;;;;32.75;27.92;;;12.40;1.00;;;;;;5062437;28;20508;-79
2022/11/24 12:29:22;;;;;;;34.73;26.63;;;12.50;1.00;;;;;;5083177;28;20241;-81
2022/11/24 12:32:01;;;;;;;29.30;23.77;;;12.70;1.00;;;;;;5075842;28;20469;-80
2022/11/24 12:34:42;;;;;;;34.70;26.20;;;12.90;1.00;;;;;;5078188;28;20440;-82
2022/11/24 12:37:48;;;;;;;32.30;25.07;;;13.20;1.00;;;;;;5079379;28;20491;-79
2022/11/24 12:40:36;;;;;;;29.27;25.33;;;12.90;1.00;;;;;;5063628;28;20431;-79
2022/11/24 12:43:15;;;;;;;32.27;25.73;;;12.60;1.00;;;;;;5081223;28;20477;-79
2022/11/24 12:45:50;;;;;;;33.03;26.47;;;12.50;1.00;;;;;;5073419;28;20435;-79
2022/11/24 12:48:33;;;;;;;30.40;25.70;;;12.70;1.00;;;;;;5074677;28;20946;-80
2022/11/24 12:51:09;;;;;;;30.33;24.70;;;12.70;1.00;;;;;;5087929;28;20491;-81
2022/11/24 12:53:40;;;;;;;30.53;24.43;;;12.10;1.00;;;;;;5105066;28;20517;-83
2022/11/24 12:56:14;;;;;;;32.77;25.83;;;11.40;1.00;;;;;;5101840;28;20409;-81
2022/11/24 12:58:49;;;;;;;32.93;26.70;;;10.70;1.00;;;;;;5101258;28;20442;-82
2022/11/24 13:01:30;;;;;;;35.60;26.37;;;10.10;1.00;;;;;;5098671;28;20538;-81
2022/11/24 13:04:12;;;;;;;34.47;28.35;;;9.70;1.00;;;;;;5106440;28;20469;-82
2022/11/24 13:06:52;;;;;;;31.65;26.50;;;9.40;1.00;;;;;;5103874;28;20241;-80
2022/11/24 13:09:21;;;;;;;34.50;24.70;;;8.90;1.00;;;;;;5106575;28;20298;-82
2022/11/24 13:12:12;;;;;;;31.30;24.37;;;8.80;1.00;;;;;;5105460;28;20453;-82
2022/11/24 13:14:51;;;;;;;32.78;25.92;;;8.70;1.00;;;;;;5100851;28;21265;-80
2022/11/24 13:17:34;;;;;;;34.08;25.90;;;8.70;1.00;;;;;;5103123;28;20255;-81
2022/11/24 13:20:15;;;;;;;34.25;26.80;;;8.60;1.00;;;;;;5088774;28;20857;-81
2022/11/24 13:22:51;;;;;;;33.92;26.83;;;8.70;1.00;;;;;;5100341;28;20318;-81
2022/11/24 13:25:25;;;;;;;40.90;34.80;;;8.70;1.00;;;;;;5101566;28;20236;-80
2022/11/24 13:28:01;;;;;;;36.70;28.10;;;8.80;1.00;;;;;;5104585;28;20440;-82
2022/11/24 13:31:04;;;;;;;38.05;30.98;;;8.70;1.00;;;;;;5098818;28;20399;-78
2022/11/24 13:33:44;;;;;;;34.10;28.37;;;8.60;1.00;;;;;;5099256;28;20244;-78
2022/11/24 13:36:31;;;;;;;37.85;28.90;;;8.40;1.00;;;;;;5100657;28;21333;-80